createdAt,value
2023-05-12T00:01:56.602Z,58.21
2023-05-12T00:04:58.669Z,58.06
2023-05-12T00:08:00.670Z,57.78
2023-05-12T00:11:02.928Z,57.84
2023-05-12T00:14:04.927Z,58.09
2023-05-12T00:17:07.087Z,58.20
2023-05-12T00:20:09.727Z,59.08
2023-05-12T00:23:12.249Z,59.12
2023-05-12T00:26:14.140Z,59.05
2023-05-12T00:29:18.687Z,57.89
2023-05-12T00:32:20.706Z,58.00
2023-05-12T00:35:22.826Z,57.19
2023-05-12T00:38:24.596Z,56.56
2023-05-12T00:41:26.442Z,55.82
2023-05-12T00:44:28.353Z,56.20
2023-05-12T00:47:30.629Z,55.52
2023-05-12T00:50:32.688Z,55.50
2023-05-12T00:53:47.844Z,55.60
2023-05-12T00:56:51.754Z,55.56
2023-05-12T00:59:55.943Z,55.61
2023-05-12T01:02:58.667Z,56.16
2023-05-12T01:06:17.802Z,55.47
2023-05-12T01:09:20.119Z,54.79
2023-05-12T01:12:23.466Z,56.26
2023-05-12T01:15:25.372Z,57.04
2023-05-12T01:18:27.729Z,57.22
2023-05-12T01:21:30.086Z,57.85
2023-05-12T01:24:36.131Z,57.73
2023-05-12T01:27:40.480Z,57.92
2023-05-12T01:30:44.067Z,58.11
2023-05-12T01:33:48.145Z,59.12
2023-05-12T01:36:50.177Z,58.55
2023-05-12T01:39:53.819Z,58.53
2023-05-12T01:42:56.239Z,57.86
2023-05-12T01:45:58.701Z,58.00
2023-05-12T01:49:00.634Z,57.22
2023-05-12T01:52:02.588Z,57.50
2023-05-12T01:55:07.251Z,57.62
2023-05-12T01:58:15.069Z,58.23
2023-05-12T02:01:18.010Z,58.79
2023-05-12T02:04:19.935Z,59.67
2023-05-12T02:07:23.259Z,59.71
2023-05-12T02:10:25.474Z,59.90
2023-05-12T02:13:27.362Z,61.03
2023-05-12T02:16:29.398Z,61.15
2023-05-12T02:19:31.266Z,60.79
2023-05-12T02:22:34.411Z,61.09
2023-05-12T02:25:36.283Z,61.59
2023-05-12T02:28:38.872Z,62.48
2023-05-12T02:31:41.136Z,62.73
2023-05-12T02:34:51.779Z,61.81
2023-05-12T02:37:53.786Z,61.25
2023-05-12T02:40:55.790Z,61.02
2023-05-12T02:43:59.061Z,60.81
2023-05-12T02:47:01.260Z,60.76
2023-05-12T02:50:04.422Z,60.32
2023-05-12T02:53:07.189Z,60.44
2023-05-12T02:56:09.114Z,60.43
2023-05-12T02:59:10.928Z,60.02
2023-05-12T03:02:13.124Z,59.65
2023-05-12T03:05:15.409Z,59.50
2023-05-12T03:08:17.242Z,59.73
2023-05-12T03:11:19.098Z,60.31
2023-05-12T03:14:21.472Z,60.49
2023-05-12T03:17:23.675Z,59.82
2023-05-12T03:20:25.771Z,60.03
2023-05-12T03:23:27.761Z,61.04
2023-05-12T03:26:30.648Z,61.36
2023-05-12T03:29:32.562Z,61.04
2023-05-12T03:32:34.474Z,59.80
2023-05-12T03:35:36.433Z,57.78
2023-05-12T03:38:38.759Z,56.09
2023-05-12T03:41:40.848Z,54.95
2023-05-12T03:44:43.911Z,53.81
2023-05-12T03:47:45.970Z,52.52
2023-05-12T03:50:48.081Z,51.56
2023-05-12T03:53:50.040Z,50.20
2023-05-12T03:56:53.205Z,49.73
2023-05-12T03:59:55.270Z,48.72
2023-05-12T04:02:57.288Z,47.59
2023-05-12T04:06:00.519Z,46.50
2023-05-12T04:09:02.341Z,46.52
2023-05-12T04:12:04.514Z,44.48
2023-05-12T04:15:06.910Z,44.93
2023-05-12T04:18:10.037Z,44.25
2023-05-12T04:21:14.531Z,43.57
2023-05-12T04:24:16.701Z,43.31
2023-05-12T04:27:18.811Z,42.97
2023-05-12T04:30:21.184Z,41.94
2023-05-12T04:33:24.654Z,39.44
2023-05-12T04:36:27.096Z,40.00
2023-05-12T04:39:29.590Z,40.39
2023-05-12T04:42:32.395Z,39.67
2023-05-12T04:45:34.811Z,39.56
2023-05-12T04:48:41.990Z,37.33
2023-05-12T04:51:44.649Z,37.98
2023-05-12T04:54:46.646Z,37.69
2023-05-12T04:57:48.654Z,37.19
2023-05-12T05:00:50.820Z,36.92
2023-05-12T05:03:52.954Z,35.81
2023-05-12T05:06:55.758Z,36.15
2023-05-12T05:09:58.381Z,35.54
2023-05-12T05:13:01.286Z,36.11
2023-05-12T05:16:03.534Z,35.73
2023-05-12T05:19:15.937Z,35.11
2023-05-12T05:22:26.377Z,35.50
2023-05-12T05:25:28.705Z,34.91
2023-05-12T05:28:31.274Z,34.74
2023-05-12T05:31:33.323Z,35.09
2023-05-12T05:34:35.343Z,34.47
2023-05-12T05:37:37.509Z,34.46
2023-05-12T05:40:52.362Z,34.29
2023-05-12T05:43:56.277Z,33.66
2023-05-12T05:46:58.829Z,32.69
2023-05-12T05:50:04.301Z,32.27
2023-05-12T05:53:08.569Z,32.49
2023-05-12T05:56:10.591Z,31.99
2023-05-12T05:59:14.439Z,31.90
2023-05-12T06:02:16.708Z,31.35
2023-05-12T06:05:18.992Z,31.08
2023-05-12T06:08:21.237Z,30.73
2023-05-12T06:11:23.127Z,30.60
2023-05-12T06:14:24.931Z,30.62
2023-05-12T06:17:26.873Z,29.82
2023-05-12T06:20:28.869Z,30.22
2023-05-12T06:23:30.918Z,29.68
2023-05-12T06:26:32.864Z,29.59
2023-05-12T06:29:35.073Z,30.16
2023-05-12T06:32:37.111Z,28.40
2023-05-12T06:35:40.493Z,28.50
2023-05-12T06:38:42.409Z,28.87
2023-05-12T06:41:44.236Z,28.10
2023-05-12T06:44:55.205Z,28.29
2023-05-12T06:47:57.965Z,27.22
2023-05-12T06:51:02.564Z,26.91
2023-05-12T06:54:07.340Z,26.28
2023-05-12T06:57:09.925Z,26.08
2023-05-12T07:00:13.069Z,25.29
2023-05-12T07:03:15.071Z,25.39
2023-05-12T07:06:17.042Z,24.36
2023-05-12T07:09:18.924Z,23.24
2023-05-12T07:12:20.805Z,24.43
2023-05-12T07:15:23.092Z,23.86
2023-05-12T07:18:25.203Z,23.19
2023-05-12T07:21:27.257Z,23.94
2023-05-12T07:24:29.136Z,23.46
2023-05-12T07:27:31.801Z,23.57
2023-05-12T07:30:33.659Z,22.70
2023-05-12T07:33:36.320Z,23.02
2023-05-12T07:36:38.247Z,21.89
2023-05-12T07:39:40.435Z,22.69
2023-05-12T07:42:42.301Z,22.19
2023-05-12T07:45:45.294Z,22.74
2023-05-12T07:48:47.156Z,21.88
2023-05-12T07:51:49.389Z,22.34
2023-05-12T07:54:51.115Z,22.00
2023-05-12T07:57:52.952Z,22.72
2023-05-12T08:00:54.856Z,23.00
2023-05-12T08:03:57.227Z,23.04
2023-05-12T08:06:59.188Z,23.26
2023-05-12T08:10:01.270Z,22.14
2023-05-12T08:13:03.189Z,22.15
2023-05-12T08:16:05.213Z,22.34
2023-05-12T08:19:07.179Z,22.53
2023-05-12T08:22:09.104Z,22.13
2023-05-12T08:25:12.546Z,22.41
2023-05-12T08:28:15.172Z,23.22
2023-05-12T08:31:17.013Z,23.30
2023-05-12T08:34:18.989Z,23.09
2023-05-12T08:37:21.025Z,22.60
2023-05-12T08:40:25.084Z,22.27
2023-05-12T08:43:38.064Z,21.94
2023-05-12T08:46:40.937Z,22.34
2023-05-12T08:49:44.249Z,22.00
2023-05-12T08:52:46.350Z,22.35
2023-05-12T08:57:08.124Z,23.03
2023-05-12T08:59:10.545Z,23.34
2023-05-12T09:02:14.463Z,22.18
2023-05-12T09:05:16.456Z,23.22
2023-05-12T09:08:18.527Z,23.45
2023-05-12T09:11:22.054Z,23.44
2023-05-12T09:14:29.703Z,23.70
2023-05-12T09:17:31.551Z,24.38
2023-05-12T09:20:33.975Z,24.68
2023-05-12T09:23:35.920Z,24.78
2023-05-12T09:26:53.984Z,24.76
2023-05-12T09:29:59.546Z,25.50
2023-05-12T09:33:09.643Z,26.68
2023-05-12T09:36:12.316Z,26.99
2023-05-12T09:39:14.327Z,27.54
2023-05-12T09:42:16.280Z,27.64
2023-05-12T09:45:19.855Z,28.21
2023-05-12T09:48:22.347Z,28.17
2023-05-12T09:51:24.594Z,28.45
2023-05-12T09:54:30.187Z,27.98
2023-05-12T09:57:34.242Z,27.36
2023-05-12T10:01:05.977Z,26.73
2023-05-12T10:04:01.861Z,25.80
2023-05-12T10:07:03.682Z,25.65
2023-05-12T10:10:08.106Z,24.58
2023-05-12T10:13:14.259Z,24.62
2023-05-12T10:16:16.501Z,24.49
2023-05-12T10:19:19.030Z,24.71
2023-05-12T10:22:21.953Z,26.14
2023-05-12T10:25:23.850Z,26.58
2023-05-12T10:28:25.760Z,27.02
2023-05-12T10:31:28.305Z,27.41
2023-05-12T10:34:34.965Z,26.98
2023-05-12T10:37:39.727Z,26.36
2023-05-12T10:41:01.152Z,25.57
2023-05-12T10:44:03.111Z,26.13
2023-05-12T10:47:16.277Z,25.18
2023-05-12T10:50:28.502Z,26.03
2023-05-12T10:53:47.828Z,26.36
2023-05-12T10:56:53.431Z,27.08
2023-05-12T11:00:01.448Z,26.92
2023-05-12T11:03:13.195Z,27.21
2023-05-12T11:06:19.708Z,27.77
2023-05-12T11:09:22.201Z,27.60
2023-05-12T11:12:26.826Z,26.66
2023-05-12T11:15:30.222Z,26.20
2023-05-12T11:18:32.044Z,25.88
2023-05-12T11:21:35.615Z,24.97
2023-05-12T11:24:42.497Z,25.39
2023-05-12T11:27:50.933Z,25.63
2023-05-12T11:30:55.260Z,25.30
2023-05-12T11:34:11.998Z,25.52
2023-05-12T11:37:14.792Z,25.41
2023-05-12T11:40:18.824Z,25.30
2023-05-12T11:43:22.606Z,25.03
2023-05-12T11:46:26.569Z,25.09
2023-05-12T11:49:30.162Z,25.15
2023-05-12T11:52:32.314Z,25.46
2023-05-12T11:55:34.262Z,26.01
2023-05-12T11:58:36.140Z,26.11
2023-05-12T12:01:46.778Z,25.66
2023-05-12T12:04:48.703Z,26.66
2023-05-12T12:07:50.517Z,27.21
2023-05-12T12:10:52.513Z,28.30
2023-05-12T12:13:58.301Z,30.12
2023-05-12T12:17:00.424Z,32.47
2023-05-12T12:20:02.263Z,32.33
2023-05-12T12:23:04.205Z,32.32
2023-05-12T12:26:06.175Z,33.68
2023-05-12T12:29:08.031Z,33.49
2023-05-12T12:32:09.829Z,32.29
2023-05-12T12:35:13.179Z,31.82
2023-05-12T12:38:14.968Z,31.03
2023-05-12T12:41:17.019Z,30.52
2023-05-12T12:44:18.963Z,30.67
2023-05-12T12:47:20.782Z,29.33
2023-05-12T12:50:24.995Z,29.00
2023-05-12T12:53:27.737Z,28.11
2023-05-12T12:56:30.096Z,28.40
2023-05-12T12:59:32.283Z,27.01
2023-05-12T13:02:34.811Z,26.67
2023-05-12T13:05:36.971Z,27.06
2023-05-12T13:08:38.738Z,26.71
2023-05-12T13:11:40.709Z,25.71
2023-05-12T13:14:42.633Z,25.54
2023-05-12T13:17:46.604Z,25.44
2023-05-12T13:20:48.552Z,25.45
2023-05-12T13:23:50.382Z,24.34
2023-05-12T13:26:52.358Z,24.20
2023-05-12T13:29:54.258Z,24.15
2023-05-12T13:32:56.280Z,25.80
2023-05-12T13:35:59.093Z,26.79
2023-05-12T13:39:01.926Z,27.63
2023-05-12T13:42:04.606Z,28.27
2023-05-12T13:45:07.086Z,28.54
2023-05-12T13:48:09.246Z,28.57
2023-05-12T13:51:11.091Z,27.82
2023-05-12T13:54:13.014Z,27.86
2023-05-12T13:57:14.857Z,27.31
2023-05-12T14:00:17.412Z,26.99
2023-05-12T14:03:19.281Z,26.76
2023-05-12T14:06:21.090Z,26.78
2023-05-12T14:09:23.434Z,27.03
2023-05-12T14:12:25.898Z,26.39
2023-05-12T14:15:40.483Z,26.21
2023-05-12T14:18:49.675Z,25.53
2023-05-12T14:21:51.560Z,25.38
2023-05-12T14:24:53.928Z,25.00
2023-05-12T14:27:56.309Z,25.20
2023-05-12T14:30:58.361Z,24.98
2023-05-12T14:34:00.364Z,24.76
2023-05-12T14:37:02.430Z,24.35
2023-05-12T14:40:05.443Z,25.01
2023-05-12T14:43:07.303Z,24.62
2023-05-12T14:46:09.337Z,24.40
2023-05-12T14:49:13.986Z,24.53
2023-05-12T14:52:16.024Z,24.52
2023-05-12T14:55:18.057Z,24.44
2023-05-12T14:58:21.966Z,24.54
2023-05-12T15:01:23.895Z,24.36
2023-05-12T15:04:27.270Z,24.33
2023-05-12T15:07:29.213Z,24.34
2023-05-12T15:10:31.835Z,24.84
2023-05-12T15:13:33.730Z,24.70
2023-05-12T15:16:35.980Z,24.87
2023-05-12T15:19:37.727Z,24.57
2023-05-12T15:22:39.609Z,24.82
2023-05-12T15:25:41.849Z,24.73
2023-05-12T15:28:43.628Z,24.38
2023-05-12T15:31:45.560Z,24.84
2023-05-12T15:34:47.539Z,25.27
2023-05-12T15:37:49.428Z,25.31
2023-05-12T15:40:51.886Z,25.50
2023-05-12T15:43:53.747Z,25.67
2023-05-12T15:46:55.846Z,25.55
2023-05-12T15:49:57.753Z,25.95
2023-05-12T15:52:59.649Z,26.27
2023-05-12T15:56:02.757Z,26.22
2023-05-12T15:59:05.397Z,26.41
2023-05-12T16:02:07.842Z,26.50
2023-05-12T16:05:10.069Z,26.51
2023-05-12T16:08:12.020Z,26.64
2023-05-12T16:11:14.124Z,26.62
2023-05-12T16:14:16.221Z,27.06
2023-05-12T16:17:18.094Z,27.37
2023-05-12T16:20:19.997Z,27.65
2023-05-12T16:23:21.875Z,27.99
2023-05-12T16:26:23.981Z,28.23
2023-05-12T16:29:26.272Z,28.69
2023-05-12T16:32:28.159Z,30.13
2023-05-12T16:35:30.087Z,30.48
2023-05-12T16:38:32.472Z,30.84
2023-05-12T16:41:34.325Z,33.13
2023-05-12T16:44:36.201Z,32.33
2023-05-12T16:47:38.439Z,33.13
2023-05-12T16:50:40.294Z,33.31
2023-05-12T16:53:42.687Z,33.34
2023-05-12T16:56:44.452Z,35.87
2023-05-12T16:59:48.241Z,34.55
2023-05-12T17:02:50.601Z,35.03
2023-05-12T17:05:52.895Z,35.81
2023-05-12T17:08:54.847Z,36.53
2023-05-12T17:11:56.730Z,36.79
2023-05-12T17:15:06.826Z,36.99
2023-05-12T17:18:09.307Z,37.66
2023-05-12T17:21:11.669Z,37.62
2023-05-12T17:24:14.566Z,38.36
2023-05-12T17:27:16.517Z,38.50
2023-05-12T17:30:18.792Z,38.87
2023-05-12T17:33:20.671Z,39.62
2023-05-12T17:36:22.624Z,39.94
2023-05-12T17:39:24.521Z,40.44
2023-05-12T17:42:31.397Z,41.10
2023-05-12T17:45:33.741Z,41.82
2023-05-12T17:48:35.931Z,42.72
2023-05-12T17:51:37.957Z,43.89
2023-05-12T17:54:39.872Z,44.95
2023-05-12T17:57:42.078Z,45.38
2023-05-12T18:00:43.916Z,45.51
2023-05-12T18:03:46.046Z,45.63
2023-05-12T18:06:50.253Z,46.27
2023-05-12T18:09:52.070Z,46.35
2023-05-12T18:12:55.430Z,46.84
2023-05-12T18:15:57.431Z,47.61
2023-05-12T18:18:59.415Z,48.26
2023-05-12T18:22:01.402Z,48.15
2023-05-12T18:25:03.317Z,48.41
2023-05-12T18:28:06.760Z,49.27
2023-05-12T18:31:15.916Z,49.29
2023-05-12T18:34:18.459Z,49.86
2023-05-12T18:37:20.321Z,50.29
2023-05-12T18:40:22.275Z,50.15
2023-05-12T18:43:24.166Z,50.18
2023-05-12T18:46:27.403Z,49.79
2023-05-12T18:49:30.679Z,50.09
2023-05-12T18:52:32.514Z,50.36
2023-05-12T18:55:34.387Z,50.69
2023-05-12T18:58:36.305Z,50.64
2023-05-12T19:01:38.316Z,51.04
2023-05-12T19:04:40.223Z,50.99
2023-05-12T19:07:42.026Z,51.21
2023-05-12T19:10:43.996Z,50.77
2023-05-12T19:13:47.328Z,50.94
2023-05-12T19:16:49.321Z,50.85
2023-05-12T19:19:51.292Z,51.24
2023-05-12T19:22:53.229Z,51.52
2023-05-12T19:25:55.182Z,51.87
2023-05-12T19:28:57.131Z,52.12
2023-05-12T19:31:58.946Z,52.69
2023-05-12T19:35:01.106Z,52.59
2023-05-12T19:38:02.930Z,52.61
2023-05-12T19:41:04.784Z,52.35
2023-05-12T19:44:06.742Z,52.57
2023-05-12T19:47:09.410Z,52.78
2023-05-12T19:50:11.521Z,53.15
2023-05-12T19:53:13.483Z,53.68
2023-05-12T19:56:15.499Z,54.19
2023-05-12T19:59:18.723Z,54.48
2023-05-12T20:02:20.906Z,54.32
2023-05-12T20:05:23.045Z,54.48
2023-05-12T20:08:24.947Z,54.64
2023-05-12T20:11:27.403Z,54.88
2023-05-12T20:14:29.259Z,55.24
2023-05-12T20:17:31.210Z,55.21
2023-05-12T20:20:33.057Z,55.03
2023-05-12T20:23:34.982Z,55.16
2023-05-12T20:26:36.967Z,55.41
2023-05-12T20:29:38.764Z,55.38
2023-05-12T20:32:40.723Z,55.43
2023-05-12T20:35:42.647Z,55.45
2023-05-12T20:38:44.520Z,55.56
2023-05-12T20:41:46.681Z,55.83
2023-05-12T20:44:48.730Z,55.91
2023-05-12T20:47:50.614Z,55.57
2023-05-12T20:50:53.112Z,56.11
2023-05-12T20:53:55.207Z,55.96
2023-05-12T20:56:57.240Z,56.44
2023-05-12T20:59:59.102Z,56.52
2023-05-12T21:03:02.968Z,56.17
2023-05-12T21:06:05.613Z,55.66
2023-05-12T21:09:07.432Z,56.08
2023-05-12T21:12:09.608Z,56.02
2023-05-12T21:15:11.861Z,56.18
2023-05-12T21:18:13.727Z,56.13
2023-05-12T21:21:16.063Z,56.55
2023-05-12T21:24:18.006Z,56.42
2023-05-12T21:27:19.809Z,56.86
2023-05-12T21:30:21.821Z,56.52
2023-05-12T21:33:23.863Z,57.54
2023-05-12T21:36:25.772Z,58.04
2023-05-12T21:39:28.024Z,58.17
2023-05-12T21:42:30.117Z,57.94
2023-05-12T21:45:32.103Z,58.33
2023-05-12T21:48:34.547Z,58.16
2023-05-12T21:51:36.411Z,57.89
2023-05-12T21:54:38.350Z,58.33
2023-05-12T21:57:40.459Z,58.76
2023-05-12T22:00:42.289Z,59.44
2023-05-12T22:03:44.423Z,59.68
2023-05-12T22:06:46.467Z,59.59
2023-05-12T22:09:48.497Z,60.00
2023-05-12T22:12:50.344Z,59.90
2023-05-12T22:15:52.232Z,60.08
2023-05-12T22:18:54.196Z,60.39
2023-05-12T22:21:57.136Z,60.15
2023-05-12T22:24:58.857Z,61.01
2023-05-12T22:28:00.792Z,60.30
2023-05-12T22:31:02.742Z,60.08
2023-05-12T22:34:04.548Z,60.31
2023-05-12T22:37:06.453Z,60.29
2023-05-12T22:40:09.020Z,60.22
2023-05-12T22:43:12.746Z,60.84
2023-05-12T22:46:14.583Z,61.23
2023-05-12T22:49:16.439Z,60.79
2023-05-12T22:52:18.314Z,60.42
2023-05-12T22:55:20.255Z,60.58
2023-05-12T22:58:22.182Z,60.98
2023-05-12T23:01:24.051Z,60.94
2023-05-12T23:04:26.154Z,61.05
2023-05-12T23:07:28.026Z,60.95
2023-05-12T23:10:29.967Z,60.96
2023-05-12T23:13:31.885Z,61.04
2023-05-12T23:16:33.804Z,61.45
2023-05-12T23:19:37.055Z,61.31
2023-05-12T23:22:38.898Z,61.20
2023-05-12T23:25:42.226Z,61.35
2023-05-12T23:28:44.087Z,61.22
2023-05-12T23:31:46.139Z,62.22
2023-05-12T23:34:48.020Z,62.00
2023-05-12T23:37:49.838Z,61.73
2023-05-12T23:40:51.651Z,61.53
2023-05-12T23:43:53.507Z,61.11
2023-05-12T23:46:55.498Z,61.63
2023-05-12T23:49:57.323Z,61.30
2023-05-12T23:52:59.174Z,61.00
2023-05-12T23:56:02.058Z,61.69
2023-05-12T23:59:03.964Z,61.67
